createdAt,value
2022-12-02T00:00:29.136Z,101362.10
2022-12-02T00:10:55.028Z,101352.95
2022-12-02T00:21:00.329Z,101357.86
2022-12-02T00:31:04.251Z,101353.26
2022-12-02T00:44:05.531Z,101360.06
2022-12-02T00:54:09.985Z,101358.73
2022-12-02T01:04:13.831Z,101355.98
2022-12-02T01:14:17.501Z,101355.77
2022-12-02T01:24:21.251Z,101356.89
2022-12-02T01:34:25.216Z,101357.72
2022-12-02T01:44:29.906Z,101355.83
2022-12-02T01:54:35.928Z,101352.60
2022-12-02T02:04:39.669Z,101351.93
2022-12-02T02:14:43.882Z,101356.86
2022-12-02T02:24:47.651Z,101361.13
2022-12-02T02:34:51.938Z,101346.77
2022-12-02T02:44:55.976Z,101337.88
2022-12-02T02:55:00.045Z,101346.64
2022-12-02T03:05:06.722Z,101343.70
2022-12-02T03:15:10.836Z,101336.45
2022-12-02T03:25:14.574Z,101329.23
2022-12-02T03:35:18.424Z,101331.83
2022-12-02T03:45:22.591Z,101335.77
2022-12-02T03:55:26.361Z,101339.90
2022-12-02T04:05:30.400Z,101327.93
2022-12-02T04:15:33.989Z,101318.61
2022-12-02T04:25:37.689Z,101318.84
2022-12-02T04:35:41.445Z,101316.77
2022-12-02T04:45:45.013Z,101304.45
2022-12-02T04:55:48.650Z,101303.48
2022-12-02T05:05:52.342Z,101304.84
2022-12-02T05:15:55.984Z,101309.54
2022-12-02T05:25:59.638Z,101312.42
2022-12-02T05:36:03.320Z,101313.24
2022-12-02T05:46:21.809Z,101308.18
2022-12-02T05:56:28.287Z,101313.52
2022-12-02T06:06:35.590Z,101319.06
2022-12-02T06:16:40.986Z,101326.69
2022-12-02T06:26:44.708Z,101342.81
2022-12-02T06:36:48.383Z,101352.20
2022-12-02T06:46:51.982Z,101356.03
2022-12-02T06:56:59.244Z,101365.02
2022-12-02T07:07:21.082Z,101370.05
2022-12-02T07:17:30.104Z,101372.79
2022-12-02T07:27:40.575Z,101369.63
2022-12-02T07:37:44.647Z,101368.23
2022-12-02T07:47:48.413Z,101363.14
2022-12-02T07:57:51.969Z,101367.25
2022-12-02T08:07:55.723Z,101365.30
2022-12-02T08:17:59.295Z,101358.92
2022-12-02T08:40:36.618Z,101367.96
2022-12-02T08:50:40.284Z,101371.27
2022-12-02T23:47:20.890Z,101349.42
2022-12-02T23:57:25.060Z,101351.81
